Oak Grove, MO

5:14 PM CST on March 02, 2015 (GMT -0600)
Hedge Hill Estates | Change Station
CLOSE
Current Station
Personal Weather Station
Location: Bates City, MO
Elevation: 902 ft
Nearby Weather Stations

Elev 902 ft 38.98 °N, 94.07 °W | Updated 4 minutes ago

Clear
Clear
33.8 °F
Feels Like 30 °F
N
4.5
Wind Variable Wind from SE
Gusts 6.9 mph

Today
High -- | Low -- °F
--% Chance of Precip.
Yesterday
High -- | Low -- °F
Precip. -- in
6:47 AM 6:10 PM
Waxing Gibbous, 93% visible
Pressure 30.26 in
Visibility 10.0 miles
Clouds Clear
Windchill 30 °F
Dew Point 19 °F
Humidity 55%
Rainfall 0.00 in
Snow Depth Not available.
UV 1 out of 12
Pollen .50 out of 12
Air Quality Not available.
Flu Activity Not available.
METAR KLXT 022253Z AUTO 11009G18KT 10SM CLR 01/M07 A3023 RMK AO2 SLP247 T00111072

More Conditions Fewer Conditions

Pressure 30.26 in
Visibility 10.0 miles
Clouds Clear
Windchill 30 °F
Dew Point 19 °F
Humidity 55%
Rainfall 0.00 in
Snow Depth Not available.
UV 1 out of 12
Pollen .50 out of 12
Air Quality Not available.
Flu Activity Not available.
METAR KLXT 022253Z AUTO 11009G18KT 10SM CLR 01/M07 A3023 RMK AO2 SLP247 T00111072

More Conditions Fewer Conditions

10-Day Weather Forecast

Almanac

Astronomy

Mar. 02, 2015 Rise Set
Actual Time
Civil Twilight
Nautical Twilight
Astronomical Twilight
Moon
Length of Visible Light
Length of Day
Tomorrow will be .
, % of the Moon is Illuminated

Today's Extremes

State Highs State Lows

Community

WunderPhotos

Upload Photos

1,801,995 photos uploaded!

WunderBlogs® & News

Nearby

Air Quality

  Air Quality AQ Index Pollutant
Not available.

Snow Depth

Station Depth Elevation

Earthquake Activity

City Distance Mag. Time & Date
Minimum magnitude displayed is 2.5.

Coastal Water Temperatures

Place Temperature

Nearby Weather Stations